Metar Cercanos

 

LEPA - Palma De Mallorc, Spain
Distance from station: ONO 38km
Actualización: 22/02/2018 02:00
Few Clouds
Few Clouds
 Viento del N
Viento: N 11 km/h
Temperatura: 8°C
Sensación frio: 6°C
Rocío: 1°C
Humedad: 62%
Barómetro: 1007 hPa
Clouds: Few Clouds
Visibility: 10 km
Cloud details: Few Clouds 762 m
2018/02/22 01:00 LEPA 220100Z 36006KT 9999 FEW025 08/01 Q1007 NOSIG
LEMH - Mahon/Menorca Is, Spain
Distance from station: ENE 105km
Actualización: 22/02/2018 02:00
Few Clouds
Few Clouds
 Viento del NNE
Viento: NNE 35 km/h
Temperatura: 7°C
Sensación frio: 3°C
Rocío: 1°C
Humedad: 66%
Barómetro: 1005 hPa
Clouds: Few Clouds
Visibility: 6 km
Cloud details: Few Clouds 1067 m
2018/02/22 01:00 LEMH 220100Z AUTO 02019KT 6000 FEW035/// 07/01 Q1005
 
LEIB - Ibiza/Es Codola, Spain
Distance from station: OSO 165km
Actualización: 22/02/2018 00:00
NOT Current
Few Clouds
Few Clouds
 Viento del NNE
Viento: NNE 11 km/h
Temperatura: 7°C
Sensación frio: 5°C
Rocío: 4°C
Humedad: 81%
Barómetro: 1008 hPa
Clouds: Few Clouds
Visibility: 10 km
Cloud details: Few Clouds 1067 m
2018/02/21 23:00 LEIB 212300Z 02006KT 9999 FEW035 07/04 Q1008 NOSIG
LEBL - Barcelona Airpor, Spain
Distance from station: NNO 225km
Actualización: 22/02/2018 02:00
Few Clouds
Few Clouds
 Viento del NNO
Viento: NNO 7 km/h
Temperatura: 5°C
Sensación frio: 3°C
Rocío: -1°C
Humedad: 66%
Barómetro: 1007 hPa
Clouds: Few Clouds
Visibility: 10 km
Cloud details: Few Clouds 762 m
2018/02/22 01:00 LEBL 220100Z 33004KT 9999 FEW025 05/M01 Q1007 NOSIG
 
LEVC - Valencia (civ/Mi, Spain
Distance from station: NO 188km
Actualización: 22/02/2018 02:00
Few Clouds
Few Clouds
 Viento del ONO
Viento: ONO 15 km/h
Temperatura: 6°C
Sensación frio: 3°C
Rocío: 1°C
Humedad: 71%
Barómetro: 1009 hPa
Clouds: Few Clouds
Visibility: 10 km
Cloud details: Few Clouds 762 m
2018/02/22 01:00 LEVC 220100Z 30008KT 9999 FEW025 06/01 Q1009 NOSIG
LEGE - Gerona/Costa Bra, Spain
Distance from station: N 276km
Actualización: 22/02/2018 02:00
Despejado
Despejado
 Viento del calm
Viento: Calma
Temperatura: 0°C
Rocío: -2°C
Humedad: 87%
Barómetro: 1007 hPa
Resumen: Despejado
Visibility: greater than 10 km
2018/02/22 01:00 LEGE 220100Z 00000KT CAVOK M00/M02 Q1007
 
LEAL - Alicante/El Alte, Spain
Distance from station: OSO 344km
Actualización: 22/02/2018 02:00
Few Clouds
Few Clouds
 Viento del O
Viento: O 6 km/h
Temperatura: 8°C
Rocío: 5°C
Humedad: 82%
Barómetro: 1008 hPa
Clouds: Few Clouds
Visibility: 10 km
Cloud details: Few Clouds 762 m
2018/02/22 01:00 LEAL 220100Z 26003KT 9999 FEW025 08/05 Q1008 NOSIG
LEAM - Almeria Airport, Spain
Distance from station: SSO 56km
Actualización: 22/02/2018 02:00
Despejado
Despejado
 Viento del E
Viento: E 13 km/h
Temperatura: 10°C
Sensación frio: 8°C
Rocío: 6°C
Humedad: 76%
Barómetro: 1008 hPa
Resumen: Despejado
Visibility: greater than 10 km
2018/02/22 01:00 LEAM 220100Z AUTO 08007KT 060V120 CAVOK 10/06 Q1008
 
LEZG - Zaragoza (mil/Ci, Spain
Distance from station: NO 431km
Actualización: 22/02/2018 02:00
Few Clouds
Few Clouds
 Viento del ONO
Viento: ONO 33 km/h
Temperatura: 5°C
Sensación frio: 0°C
Rocío: -2°C
Humedad: 61%
Barómetro: 1010 hPa
Clouds: Few Clouds
Visibility: 10 km
Cloud details: Few Clouds 1219 m
2018/02/22 01:00 LEZG 220100Z 30018KT 9999 FEW040 05/M02 Q1010
LEMD - Madrid/Barajas, Spain
Distance from station: ONO 234km
Actualización: 22/02/2018 02:00
Despejado
Despejado
 Viento del NNE
Viento: NNE 7 km/h
Temperatura: 0°C
Sensación frio: -3°C
Rocío: -7°C
Humedad: 60%
Barómetro: 1011 hPa
Resumen: Despejado
Visibility: greater than 10 km
2018/02/22 01:00 LEMD 220100Z 02004KT 350V060 CAVOK 00/M07 Q1011 NOSIG
 
LEGR - Granada Airport, Spain
Distance from station: OSO 62km
Actualización: 22/02/2018 02:00
Cubierto
Cubierto
 Viento del calm
Viento: Calma
Temperatura: 3°C
Rocío: -2°C
Humedad: 70%
Barómetro: 1008 hPa
Clouds: Cubierto
Visibility: 10 km
Cloud details: Cubierto 2682 m
2018/02/22 01:00 LEGR 220100Z AUTO 00000KT 9999 OVC088 03/M02 Q1008
LEMG - Malaga (civ/Mil), Spain
Distance from station: OSO 227km
Actualización: 22/02/2018 02:00
Parcialmente nuboso
Parcialmente nuboso
 Viento del NO
Viento: NO 4 km/h
Barómetro: 1008 hPa
Clouds: Parcialmente nuboso
Visibility: 10 km
Cloud details: Few Clouds 610 m
Parcialmente nuboso 1219 m
2018/02/22 01:00 LEMG 220100Z 31002KT 9999 FEW020 SCT040 ///// Q1008 NOSIG
 
LEZL - Sevilla (civ/Mil, Spain
Distance from station: S 318km
Actualización: 22/02/2018 02:00
Despejado
Despejado
 Viento del ONO
Viento: ONO 4 km/h
Temperatura: 8°C
Rocío: -1°C
Humedad: 53%
Barómetro: 1009 hPa
Clouds: Despejado
Visibility: 10 km
2018/02/22 01:00 LEZL 220100Z AUTO 30002KT 9999 NCD 08/M01 Q1009
LEVT - Vitoria, Spain
Distance from station: NO 226km
Actualización: 22/02/2018 02:00
Cubierto
Cubierto
 Viento del NNO
Viento: NNO 7 km/h
Temperatura: 2°C
Sensación frio: 0°C
Rocío: 0°C
Humedad: 87%
Barómetro: 1014 hPa
Clouds: Cubierto
Visibility: 10 km
Cloud details: Few Clouds 792 m
Cubierto 1341 m
2018/02/22 01:00 LEVT 220100Z 34004KT 300V010 9999 FEW026 OVC044 02/M00 Q1014
 
LEBB - Bilbao/Sondica, Spain
Distance from station: NNO 235km
Actualización: 22/02/2018 02:00
Muy nuboso
Muy nuboso
 Viento del ENE
Viento: ENE 11 km/h
Temperatura: 7°C
Sensación frio: 5°C
Rocío: 2°C
Humedad: 71%
Barómetro: 1016 hPa
Clouds: Muy nuboso
Visibility: 10 km
Cloud details: Muy nuboso 1524 m
2018/02/22 01:00 LEBB 220100Z AUTO 06006KT 030V090 9999 BKN050 07/02 Q1016
LESO - San Sebastian/Fu, Spain
Distance from station: N 231km
Actualización: 22/02/2018 02:00
Cubierto
Cubierto
 Viento del SE
Viento: SE 6 km/h
Temperatura: 5°C
Rocío: 0°C
Humedad: 70%
Barómetro: 1016 hPa
Clouds: Cubierto
Visibility: 9 km
Cloud details: Muy nuboso 975 m
Cubierto 1219 m
2018/02/22 01:00 LESO 220100Z AUTO 14003KT 110V170 9000 BKN032/// OVC040/// 05/M00 Q1016
 
LEVD - Valladolid(Mil/C, Spain
Distance from station: ONO 239km
Actualización: 21/02/2018 21:30
NOT Current
Despejado
Despejado
 Viento del ENE
Viento: ENE 30 km/h
Temperatura: 1°C
Sensación frio: -5°C
Rocío: -4°C
Humedad: 70%
Barómetro: 1012 hPa
Resumen: Despejado
Visibility: greater than 10 km
2018/02/21 20:30 LEVD 212030Z 07016KT CAVOK 01/M04 Q1012
LESA - Salamanca (civ/M, Spain
Distance from station: ONO 349km
Actualización: 21/02/2018 19:00
NOT Current
Parcialmente nuboso
Parcialmente nuboso
 Viento del E
Viento: E 24 km/h
Temperatura: 6°C
Sensación frio: 2°C
Rocío: -4°C
Humedad: 49%
Barómetro: 1012 hPa
Clouds: Parcialmente nuboso
Visibility: 10 km
Cloud details: Parcialmente nuboso 1372 m
2018/02/21 18:00 LESA 211800Z 08013KT 040V100 9999 SCT045 06/M04 Q1012
 
LEXJ - Santander/Paraya, Spain
Distance from station: NNO 247km
Actualización: 22/02/2018 02:00
Muy nuboso
Muy nuboso
 Viento del SO
Viento: SO 11 km/h
Temperatura: 6°C
Sensación frio: 4°C
Rocío: 3°C
Humedad: 81%
Barómetro: 1017 hPa
Clouds: Muy nuboso
Visibility: 6 km
Cloud details: Muy nuboso 1311 m
2018/02/22 01:00 LEXJ 220100Z AUTO 23006KT 6000 BKN043 06/03 Q1017
LEAS - Asturias/Aviles, Spain
Distance from station: NO 214km
Actualización: 22/02/2018 02:00
Parcialmente nuboso
Parcialmente nuboso
 Viento del varies
Viento: varies 4 km/h
Temperatura: 5°C
Rocío: 2°C
Humedad: 81%
Barómetro: 1016 hPa
Clouds: Parcialmente nuboso
Visibility: 7 km
Cloud details: Parcialmente nuboso 1402 m
2018/02/22 01:00 LEAS 220100Z AUTO VRB02KT 7000 SCT046 05/02 Q1016
 
LECO - La Coruna/Alvedr, Spain
Distance from station: ONO 222km
Actualización: 22/02/2018 02:00
Despejado
Despejado
 Viento del E
Viento: E 9 km/h
Temperatura: 7°C
Sensación frio: 6°C
Rocío: 2°C
Humedad: 71%
Barómetro: 1015 hPa
Clouds: Despejado
Visibility: 10 km
2018/02/22 01:00 LECO 220100Z AUTO 08005KT 9999 NCD 07/02 Q1015
LEVX - Vigo/Peinador, Spain
Distance from station: O 214km
Actualización: 22/02/2018 02:00
Despejado
Despejado
 Viento del SSO
Viento: SSO 13 km/h
Temperatura: 6°C
Sensación frio: 3°C
Rocío: 2°C
Humedad: 76%
Barómetro: 1011 hPa
Resumen: Despejado
Visibility: greater than 10 km
2018/02/22 01:00 LEVX 220100Z 21007KT 170V240 CAVOK 06/02 Q1011 NOSIG